Hillier

*Note: All times are displayed in the local standard time of the station location.
**Rain - Equipment is designed to accurately record liquid precipitation; under conditions when precipitation is not in liquid form, the data displayed may not properly reflect rainfall values.

Date Max Temp
(°C)
Min Temp
(°C)
Avg Temp
(°C)
Rain (mm) Avg RH (%) Solar Rad (kJ/m2)
Thu, Nov 15, 2018 0.4 -8.1 -3.3 0.0 83.3 1709.6
Wed, Nov 14, 2018 -1.8 -7.8 -5.1 0.0 62.0 4687.7
Tue, Nov 13, 2018 2.7 -4.1 0.2 2.4 87.0 1015.7
Mon, Nov 12, 2018 6.4 -0.9 2.6 5.2 84.7 2422.1
Sun, Nov 11, 2018 3.6 -4.9 -0.3 0.0 80.7 3957.6
Sat, Nov 10, 2018 5.1 -2.0 1.0 0.4 71.8 2270.7
Fri, Nov 09, 2018 6.0 -2.1 1.8 23.4 97.0 377.1
DateTime Avg Temp (°C) Rain (mm) RH (%) Solar Rad (kJ/m2)
Fri, Nov 16, 2018 07:00 -2.1 0.0 100.0 0.0
Fri, Nov 16, 2018 06:00 -1.8 0.0 100.0 0.0
Fri, Nov 16, 2018 05:00 -2.0 0.0 100.0 0.0
Fri, Nov 16, 2018 04:00 -2.3 0.0 100.0 0.0
Fri, Nov 16, 2018 03:00 -2.0 0.0 100.0 0.0
Fri, Nov 16, 2018 02:00 -0.5 0.0 100.0 0.0
Fri, Nov 16, 2018 01:00 -0.4 0.0 100.0 0.0
Fri, Nov 16, 2018 00:00 -0.3 0.0 100.0 0.0
Thu, Nov 15, 2018 23:00 -0.6 0.0 100.0 0.0
Thu, Nov 15, 2018 22:00 -0.9 0.0 100.0 0.0
Thu, Nov 15, 2018 21:00 -1.0 0.0 100.0 0.0
Thu, Nov 15, 2018 20:00 -1.4 0.0 100.0 0.0
Thu, Nov 15, 2018 19:00 -1.2 0.0 100.0 0.0
Thu, Nov 15, 2018 18:00 -0.3 0.0 87.0 0.0
Thu, Nov 15, 2018 17:00 0.2 0.0 74.3 5.0
Thu, Nov 15, 2018 16:00 0.0 0.0 71.8 47.2
Thu, Nov 15, 2018 15:00 -0.3 0.0 70.8 130.1
Thu, Nov 15, 2018 14:00 -0.4 0.0 64.5 227.4
Thu, Nov 15, 2018 13:00 -0.6 0.0 63.5 323.3
Thu, Nov 15, 2018 12:00 -0.8 0.0 68.0 372.1
Thu, Nov 15, 2018 11:00 -1.8 0.0 73.8 299.4
Thu, Nov 15, 2018 10:00 -4.2 0.0 81.8 157.9
Thu, Nov 15, 2018 09:00 -5.9 0.0 83.3 123.1
Thu, Nov 15, 2018 08:00 -6.8 0.0 84.0 24.1
Thu, Nov 15, 2018 07:00 -7.2 0.0 84.8 0.0
Thu, Nov 15, 2018 06:00 -7.8 0.0 84.0 0.0
Thu, Nov 15, 2018 05:00 -8.0 0.0 81.8 0.0
Thu, Nov 15, 2018 04:00 -8.0 0.0 80.8 0.0
Thu, Nov 15, 2018 03:00 -7.4 0.0 80.8 0.0
Thu, Nov 15, 2018 02:00 -7.4 0.0 84.5 0.0
Thu, Nov 15, 2018 01:00 -7.3 0.0 80.3 0.0
Thu, Nov 15, 2018 00:00 -7.1 0.0 78.0 0.0
Wed, Nov 14, 2018 23:00 -7.4 0.0 86.3 0.0
Wed, Nov 14, 2018 22:00 -7.5 0.0 89.0 0.0
Wed, Nov 14, 2018 21:00 -6.7 0.0 73.3 0.0
Wed, Nov 14, 2018 20:00 -6.0 0.0 68.0 0.0
Wed, Nov 14, 2018 19:00 -5.5 0.0 64.0 0.0
Wed, Nov 14, 2018 18:00 -5.3 0.0 64.8 0.0
Wed, Nov 14, 2018 17:00 -4.1 0.0 58.5 27.5
Wed, Nov 14, 2018 16:00 -2.8 0.0 52.3 313.9
Wed, Nov 14, 2018 15:00 -2.0 0.0 51.0 615.3
Wed, Nov 14, 2018 14:00 -2.2 0.0 50.3 798.3
Wed, Nov 14, 2018 13:00 -2.3 0.0 49.0 957.0
Wed, Nov 14, 2018 12:00 -3.4 0.0 49.5 892.9
Wed, Nov 14, 2018 11:00 -4.5 0.0 51.0 482.6
Wed, Nov 14, 2018 10:00 -4.8 0.0 51.8 417.0
Wed, Nov 14, 2018 09:00 -6.0 0.0 55.0 158.8
Wed, Nov 14, 2018 08:00 -6.8 0.0 56.5 24.4


asterix Register now to access more data! asterix